sensor_id;sensor_type;location;lat;lon;timestamp;temperature;humidity
8172;DHT22;4127;47.908;10.850;2023-11-19T00:00:09;8.60;99.90
8172;DHT22;4127;47.908;10.850;2023-11-19T00:02:40;8.60;99.90
8172;DHT22;4127;47.908;10.850;2023-11-19T00:05:08;8.60;99.90
8172;DHT22;4127;47.908;10.850;2023-11-19T00:07:36;8.70;99.90
8172;DHT22;4127;47.908;10.850;2023-11-19T00:10:04;8.70;99.90
8172;DHT22;4127;47.908;10.850;2023-11-19T00:12:33;8.70;99.90
8172;DHT22;4127;47.908;10.850;2023-11-19T00:15:00;8.70;99.90
8172;DHT22;4127;47.908;10.850;2023-11-19T00:17:28;8.70;99.90
8172;DHT22;4127;47.908;10.850;2023-11-19T00:19:55;8.80;99.90
8172;DHT22;4127;47.908;10.850;2023-11-19T00:22:22;8.80;99.90
8172;DHT22;4127;47.908;10.850;2023-11-19T00:24:49;8.80;99.90
8172;DHT22;4127;47.908;10.850;2023-11-19T00:27:16;8.80;99.90
8172;DHT22;4127;47.908;10.850;2023-11-19T00:29:44;8.80;99.90
8172;DHT22;4127;47.908;10.850;2023-11-19T00:32:11;8.90;99.90
8172;DHT22;4127;47.908;10.850;2023-11-19T00:34:38;8.90;99.90
8172;DHT22;4127;47.908;10.850;2023-11-19T00:37:05;8.90;99.90
8172;DHT22;4127;47.908;10.850;2023-11-19T00:39:33;8.90;99.90
8172;DHT22;4127;47.908;10.850;2023-11-19T00:42:00;9.00;99.90
8172;DHT22;4127;47.908;10.850;2023-11-19T00:44:27;9.10;99.90
8172;DHT22;4127;47.908;10.850;2023-11-19T00:46:54;9.10;99.90
8172;DHT22;4127;47.908;10.850;2023-11-19T00:49:20;9.10;99.90
8172;DHT22;4127;47.908;10.850;2023-11-19T00:51:47;9.10;99.90
8172;DHT22;4127;47.908;10.850;2023-11-19T00:54:15;9.20;99.90
8172;DHT22;4127;47.908;10.850;2023-11-19T00:56:42;9.20;99.90
8172;DHT22;4127;47.908;10.850;2023-11-19T00:59:09;9.20;99.90
8172;DHT22;4127;47.908;10.850;2023-11-19T01:01:36;9.20;99.90
8172;DHT22;4127;47.908;10.850;2023-11-19T01:04:03;9.20;99.90
8172;DHT22;4127;47.908;10.850;2023-11-19T01:06:31;9.30;99.90
8172;DHT22;4127;47.908;10.850;2023-11-19T01:08:58;9.30;99.90
8172;DHT22;4127;47.908;10.850;2023-11-19T01:11:25;9.40;99.90
8172;DHT22;4127;47.908;10.850;2023-11-19T01:13:52;9.40;99.90
8172;DHT22;4127;47.908;10.850;2023-11-19T01:16:20;9.40;99.90
8172;DHT22;4127;47.908;10.850;2023-11-19T01:18:47;9.40;99.90
8172;DHT22;4127;47.908;10.850;2023-11-19T01:21:15;9.40;99.90
8172;DHT22;4127;47.908;10.850;2023-11-19T01:23:42;9.40;99.90
8172;DHT22;4127;47.908;10.850;2023-11-19T01:26:10;9.50;99.90
8172;DHT22;4127;47.908;10.850;2023-11-19T01:28:37;9.50;99.90
8172;DHT22;4127;47.908;10.850;2023-11-19T01:31:17;9.50;99.90
8172;DHT22;4127;47.908;10.850;2023-11-19T01:33:44;9.50;99.90
8172;DHT22;4127;47.908;10.850;2023-11-19T01:36:14;9.50;99.90
8172;DHT22;4127;47.908;10.850;2023-11-19T01:38:41;9.50;99.90
8172;DHT22;4127;47.908;10.850;2023-11-19T01:41:08;9.60;99.90
8172;DHT22;4127;47.908;10.850;2023-11-19T01:43:36;9.50;99.90
8172;DHT22;4127;47.908;10.850;2023-11-19T01:46:05;9.60;99.90
8172;DHT22;4127;47.908;10.850;2023-11-19T01:48:34;9.60;99.90
8172;DHT22;4127;47.908;10.850;2023-11-19T01:51:03;9.60;99.90
8172;DHT22;4127;47.908;10.850;2023-11-19T01:53:31;9.60;99.90
8172;DHT22;4127;47.908;10.850;2023-11-19T01:55:58;9.50;99.90
8172;DHT22;4127;47.908;10.850;2023-11-19T01:58:25;9.60;99.90
8172;DHT22;4127;47.908;10.850;2023-11-19T02:00:53;9.60;99.90
8172;DHT22;4127;47.908;10.850;2023-11-19T02:03:20;9.60;99.90
8172;DHT22;4127;47.908;10.850;2023-11-19T02:05:48;9.60;99.90
8172;DHT22;4127;47.908;10.850;2023-11-19T02:08:16;9.70;99.90
8172;DHT22;4127;47.908;10.850;2023-11-19T02:10:43;9.60;99.90
8172;DHT22;4127;47.908;10.850;2023-11-19T02:13:11;9.60;99.90
8172;DHT22;4127;47.908;10.850;2023-11-19T02:15:41;9.70;99.90
8172;DHT22;4127;47.908;10.850;2023-11-19T02:18:27;9.70;99.90
8172;DHT22;4127;47.908;10.850;2023-11-19T02:20:55;9.70;99.90
8172;DHT22;4127;47.908;10.850;2023-11-19T02:23:23;9.70;99.90
8172;DHT22;4127;47.908;10.850;2023-11-19T02:28:42;9.80;99.90
8172;DHT22;4127;47.908;10.850;2023-11-19T02:31:10;9.80;99.90
8172;DHT22;4127;47.908;10.850;2023-11-19T02:33:38;9.80;99.90
8172;DHT22;4127;47.908;10.850;2023-11-19T02:36:06;9.80;99.90
8172;DHT22;4127;47.908;10.850;2023-11-19T02:38:34;9.80;99.90
8172;DHT22;4127;47.908;10.850;2023-11-19T02:41:06;9.80;99.90
8172;DHT22;4127;47.908;10.850;2023-11-19T02:43:34;9.80;99.90
8172;DHT22;4127;47.908;10.850;2023-11-19T02:46:02;9.80;99.90
8172;DHT22;4127;47.908;10.850;2023-11-19T02:48:41;9.80;99.90
8172;DHT22;4127;47.908;10.850;2023-11-19T02:51:10;9.80;99.90
8172;DHT22;4127;47.908;10.850;2023-11-19T02:53:38;9.80;99.90
8172;DHT22;4127;47.908;10.850;2023-11-19T02:56:07;9.80;99.90
8172;DHT22;4127;47.908;10.850;2023-11-19T02:58:52;9.80;99.90
8172;DHT22;4127;47.908;10.850;2023-11-19T03:01:25;9.80;99.90
8172;DHT22;4127;47.908;10.850;2023-11-19T03:04:01;9.80;99.90
8172;DHT22;4127;47.908;10.850;2023-11-19T03:06:30;9.80;99.90
8172;DHT22;4127;47.908;10.850;2023-11-19T03:08:57;9.80;99.90
8172;DHT22;4127;47.908;10.850;2023-11-19T03:11:24;9.80;99.90
8172;DHT22;4127;47.908;10.850;2023-11-19T03:13:51;9.80;99.90
8172;DHT22;4127;47.908;10.850;2023-11-19T03:16:18;9.80;99.90
8172;DHT22;4127;47.908;10.850;2023-11-19T03:18:45;9.80;99.90
8172;DHT22;4127;47.908;10.850;2023-11-19T03:21:12;9.80;99.90
8172;DHT22;4127;47.908;10.850;2023-11-19T03:23:39;9.90;99.90
8172;DHT22;4127;47.908;10.850;2023-11-19T03:26:07;9.90;99.90
8172;DHT22;4127;47.908;10.850;2023-11-19T03:28:34;9.90;99.90
8172;DHT22;4127;47.908;10.850;2023-11-19T03:31:06;9.80;99.90
8172;DHT22;4127;47.908;10.850;2023-11-19T03:33:36;9.90;99.90
8172;DHT22;4127;47.908;10.850;2023-11-19T03:36:05;9.90;99.90
8172;DHT22;4127;47.908;10.850;2023-11-19T03:38:32;9.90;99.90
8172;DHT22;4127;47.908;10.850;2023-11-19T03:40:59;9.90;99.90
8172;DHT22;4127;47.908;10.850;2023-11-19T03:43:26;9.90;99.90
8172;DHT22;4127;47.908;10.850;2023-11-19T03:45:54;9.90;99.90
8172;DHT22;4127;47.908;10.850;2023-11-19T03:48:21;9.90;99.90
8172;DHT22;4127;47.908;10.850;2023-11-19T03:50:49;9.90;99.90
8172;DHT22;4127;47.908;10.850;2023-11-19T03:53:16;9.90;99.90
8172;DHT22;4127;47.908;10.850;2023-11-19T03:55:44;9.90;99.90
8172;DHT22;4127;47.908;10.850;2023-11-19T03:58:11;9.90;99.90
8172;DHT22;4127;47.908;10.850;2023-11-19T04:00:39;9.90;99.90
8172;DHT22;4127;47.908;10.850;2023-11-19T04:03:07;9.90;99.90
8172;DHT22;4127;47.908;10.850;2023-11-19T04:05:34;10.00;99.90
8172;DHT22;4127;47.908;10.850;2023-11-19T04:08:01;10.00;99.90
8172;DHT22;4127;47.908;10.850;2023-11-19T04:10:28;10.00;99.90
8172;DHT22;4127;47.908;10.850;2023-11-19T04:12:55;10.00;99.90
8172;DHT22;4127;47.908;10.850;2023-11-19T04:15:22;10.00;99.90
8172;DHT22;4127;47.908;10.850;2023-11-19T04:17:48;10.00;99.90
8172;DHT22;4127;47.908;10.850;2023-11-19T04:20:15;10.00;99.90
8172;DHT22;4127;47.908;10.850;2023-11-19T04:22:42;10.00;99.90
8172;DHT22;4127;47.908;10.850;2023-11-19T04:25:09;9.90;99.90
8172;DHT22;4127;47.908;10.850;2023-11-19T04:27:36;9.90;99.90
8172;DHT22;4127;47.908;10.850;2023-11-19T04:30:04;9.90;99.90
8172;DHT22;4127;47.908;10.850;2023-11-19T04:32:32;9.90;99.90
8172;DHT22;4127;47.908;10.850;2023-11-19T04:34:59;9.90;99.90
8172;DHT22;4127;47.908;10.850;2023-11-19T04:37:26;9.90;99.90
8172;DHT22;4127;47.908;10.850;2023-11-19T04:39:52;9.90;99.90
8172;DHT22;4127;47.908;10.850;2023-11-19T04:42:22;9.90;99.90
8172;DHT22;4127;47.908;10.850;2023-11-19T04:44:49;10.00;99.90
8172;DHT22;4127;47.908;10.850;2023-11-19T04:47:16;10.00;99.90
8172;DHT22;4127;47.908;10.850;2023-11-19T04:49:43;10.00;99.90
8172;DHT22;4127;47.908;10.850;2023-11-19T04:52:10;10.00;99.90
8172;DHT22;4127;47.908;10.850;2023-11-19T04:54:42;10.00;99.90
8172;DHT22;4127;47.908;10.850;2023-11-19T04:57:15;10.00;99.90
8172;DHT22;4127;47.908;10.850;2023-11-19T04:59:43;9.90;99.90
8172;DHT22;4127;47.908;10.850;2023-11-19T05:02:10;10.00;99.90
8172;DHT22;4127;47.908;10.850;2023-11-19T05:04:37;9.90;99.90
8172;DHT22;4127;47.908;10.850;2023-11-19T05:07:07;9.80;99.90
8172;DHT22;4127;47.908;10.850;2023-11-19T05:09:34;9.80;99.90
8172;DHT22;4127;47.908;10.850;2023-11-19T05:12:01;9.80;99.90
8172;DHT22;4127;47.908;10.850;2023-11-19T05:14:28;9.80;99.90
8172;DHT22;4127;47.908;10.850;2023-11-19T05:16:55;9.70;99.90
8172;DHT22;4127;47.908;10.850;2023-11-19T05:19:22;9.80;99.90
8172;DHT22;4127;47.908;10.850;2023-11-19T05:21:49;9.80;99.90
8172;DHT22;4127;47.908;10.850;2023-11-19T05:24:18;9.70;99.90
8172;DHT22;4127;47.908;10.850;2023-11-19T05:26:45;9.70;99.90
8172;DHT22;4127;47.908;10.850;2023-11-19T05:29:13;9.70;99.90
8172;DHT22;4127;47.908;10.850;2023-11-19T05:31:40;9.70;99.90
8172;DHT22;4127;47.908;10.850;2023-11-19T05:34:10;9.80;99.90
8172;DHT22;4127;47.908;10.850;2023-11-19T05:36:38;9.80;99.90
8172;DHT22;4127;47.908;10.850;2023-11-19T05:39:06;9.80;99.90
8172;DHT22;4127;47.908;10.850;2023-11-19T05:41:33;9.80;99.90
8172;DHT22;4127;47.908;10.850;2023-11-19T05:44:00;9.80;99.90
8172;DHT22;4127;47.908;10.850;2023-11-19T05:46:27;9.80;99.90
8172;DHT22;4127;47.908;10.850;2023-11-19T05:48:54;9.80;99.90
8172;DHT22;4127;47.908;10.850;2023-11-19T05:51:21;9.90;99.90
8172;DHT22;4127;47.908;10.850;2023-11-19T05:53:50;9.90;99.90
8172;DHT22;4127;47.908;10.850;2023-11-19T05:56:17;9.90;99.90
8172;DHT22;4127;47.908;10.850;2023-11-19T05:58:48;9.90;99.90
8172;DHT22;4127;47.908;10.850;2023-11-19T06:01:16;9.90;99.90
8172;DHT22;4127;47.908;10.850;2023-11-19T06:03:43;9.90;99.90
8172;DHT22;4127;47.908;10.850;2023-11-19T06:06:14;9.90;99.90
8172;DHT22;4127;47.908;10.850;2023-11-19T06:08:41;9.90;99.90
8172;DHT22;4127;47.908;10.850;2023-11-19T06:11:10;10.00;99.90
8172;DHT22;4127;47.908;10.850;2023-11-19T06:13:41;10.00;99.90
8172;DHT22;4127;47.908;10.850;2023-11-19T06:16:10;10.00;99.90
8172;DHT22;4127;47.908;10.850;2023-11-19T06:18:37;10.00;99.90
8172;DHT22;4127;47.908;10.850;2023-11-19T06:21:05;10.00;99.90
8172;DHT22;4127;47.908;10.850;2023-11-19T06:23:32;10.00;99.90
8172;DHT22;4127;47.908;10.850;2023-11-19T06:25:59;10.10;99.90
8172;DHT22;4127;47.908;10.850;2023-11-19T06:28:26;10.10;99.90
8172;DHT22;4127;47.908;10.850;2023-11-19T06:30:53;10.10;99.90
8172;DHT22;4127;47.908;10.850;2023-11-19T06:33:20;10.10;99.90
8172;DHT22;4127;47.908;10.850;2023-11-19T06:35:47;10.10;99.90
8172;DHT22;4127;47.908;10.850;2023-11-19T06:38:14;10.10;99.90
8172;DHT22;4127;47.908;10.850;2023-11-19T06:40:41;10.10;99.90
8172;DHT22;4127;47.908;10.850;2023-11-19T06:43:09;10.10;99.90
8172;DHT22;4127;47.908;10.850;2023-11-19T06:45:36;10.10;99.90
8172;DHT22;4127;47.908;10.850;2023-11-19T06:48:04;10.10;99.90
8172;DHT22;4127;47.908;10.850;2023-11-19T06:50:32;10.10;99.90
8172;DHT22;4127;47.908;10.850;2023-11-19T06:52:58;10.20;99.90
8172;DHT22;4127;47.908;10.850;2023-11-19T06:55:26;10.30;99.90
8172;DHT22;4127;47.908;10.850;2023-11-19T06:57:53;10.20;99.90
8172;DHT22;4127;47.908;10.850;2023-11-19T07:00:20;10.20;99.90
8172;DHT22;4127;47.908;10.850;2023-11-19T07:02:47;10.20;99.90
8172;DHT22;4127;47.908;10.850;2023-11-19T07:05:15;10.20;99.90
8172;DHT22;4127;47.908;10.850;2023-11-19T07:07:42;10.20;99.90
8172;DHT22;4127;47.908;10.850;2023-11-19T07:10:09;10.30;99.90
8172;DHT22;4127;47.908;10.850;2023-11-19T07:12:36;10.20;99.90
8172;DHT22;4127;47.908;10.850;2023-11-19T07:15:04;10.30;99.90
8172;DHT22;4127;47.908;10.850;2023-11-19T07:17:31;10.30;99.90
8172;DHT22;4127;47.908;10.850;2023-11-19T07:19:59;10.30;99.90
8172;DHT22;4127;47.908;10.850;2023-11-19T07:22:26;10.30;99.90
8172;DHT22;4127;47.908;10.850;2023-11-19T07:24:56;10.30;99.90
8172;DHT22;4127;47.908;10.850;2023-11-19T07:27:23;10.30;99.90
8172;DHT22;4127;47.908;10.850;2023-11-19T07:29:51;10.30;99.90
8172;DHT22;4127;47.908;10.850;2023-11-19T07:32:18;10.30;99.90
8172;DHT22;4127;47.908;10.850;2023-11-19T07:34:45;10.30;99.90
8172;DHT22;4127;47.908;10.850;2023-11-19T07:37:12;10.40;99.90
8172;DHT22;4127;47.908;10.850;2023-11-19T07:39:39;10.40;99.90
8172;DHT22;4127;47.908;10.850;2023-11-19T07:42:08;10.40;99.90
8172;DHT22;4127;47.908;10.850;2023-11-19T07:44:36;10.40;99.90
8172;DHT22;4127;47.908;10.850;2023-11-19T07:47:04;10.40;99.90
8172;DHT22;4127;47.908;10.850;2023-11-19T07:49:31;10.40;99.90
8172;DHT22;4127;47.908;10.850;2023-11-19T07:51:58;10.50;99.90
8172;DHT22;4127;47.908;10.850;2023-11-19T07:54:25;10.40;99.90
8172;DHT22;4127;47.908;10.850;2023-11-19T07:56:52;10.40;99.90
8172;DHT22;4127;47.908;10.850;2023-11-19T07:59:19;10.40;99.90
8172;DHT22;4127;47.908;10.850;2023-11-19T08:01:46;10.40;99.90
8172;DHT22;4127;47.908;10.850;2023-11-19T08:04:13;10.40;99.90
8172;DHT22;4127;47.908;10.850;2023-11-19T08:06:40;10.40;99.90
8172;DHT22;4127;47.908;10.850;2023-11-19T08:09:07;10.40;99.90
8172;DHT22;4127;47.908;10.850;2023-11-19T08:11:41;10.50;99.90
8172;DHT22;4127;47.908;10.850;2023-11-19T08:14:08;10.50;99.90
8172;DHT22;4127;47.908;10.850;2023-11-19T08:16:35;10.50;99.90
8172;DHT22;4127;47.908;10.850;2023-11-19T08:19:04;10.50;99.90
8172;DHT22;4127;47.908;10.850;2023-11-19T08:21:30;10.60;99.90
8172;DHT22;4127;47.908;10.850;2023-11-19T08:23:57;10.50;99.90
8172;DHT22;4127;47.908;10.850;2023-11-19T08:26:24;10.50;99.90
8172;DHT22;4127;47.908;10.850;2023-11-19T08:28:51;10.50;99.90
8172;DHT22;4127;47.908;10.850;2023-11-19T08:31:18;10.50;99.90
8172;DHT22;4127;47.908;10.850;2023-11-19T08:33:45;10.50;99.90
8172;DHT22;4127;47.908;10.850;2023-11-19T08:36:16;10.60;99.90
8172;DHT22;4127;47.908;10.850;2023-11-19T08:38:43;10.60;99.90
8172;DHT22;4127;47.908;10.850;2023-11-19T08:41:10;10.60;99.90
8172;DHT22;4127;47.908;10.850;2023-11-19T08:43:37;10.60;99.90
8172;DHT22;4127;47.908;10.850;2023-11-19T08:46:10;10.60;99.90
8172;DHT22;4127;47.908;10.850;2023-11-19T08:48:38;10.60;99.90
8172;DHT22;4127;47.908;10.850;2023-11-19T08:51:05;10.60;99.90
8172;DHT22;4127;47.908;10.850;2023-11-19T08:53:32;10.60;99.90
8172;DHT22;4127;47.908;10.850;2023-11-19T08:55:59;10.70;99.90
8172;DHT22;4127;47.908;10.850;2023-11-19T08:58:27;10.70;99.90
8172;DHT22;4127;47.908;10.850;2023-11-19T09:00:54;10.70;99.90
8172;DHT22;4127;47.908;10.850;2023-11-19T09:03:21;10.80;99.90
8172;DHT22;4127;47.908;10.850;2023-11-19T09:05:49;10.80;99.90
8172;DHT22;4127;47.908;10.850;2023-11-19T09:08:15;10.90;99.90
8172;DHT22;4127;47.908;10.850;2023-11-19T09:10:42;10.90;99.90
8172;DHT22;4127;47.908;10.850;2023-11-19T09:13:09;10.90;99.90
8172;DHT22;4127;47.908;10.850;2023-11-19T09:15:36;10.90;99.90
8172;DHT22;4127;47.908;10.850;2023-11-19T09:18:03;10.90;99.90
8172;DHT22;4127;47.908;10.850;2023-11-19T09:20:31;10.90;99.90
8172;DHT22;4127;47.908;10.850;2023-11-19T09:23:05;11.00;99.90
8172;DHT22;4127;47.908;10.850;2023-11-19T09:25:33;11.00;99.90
8172;DHT22;4127;47.908;10.850;2023-11-19T09:28:03;11.00;99.90
8172;DHT22;4127;47.908;10.850;2023-11-19T09:30:30;11.00;99.90
8172;DHT22;4127;47.908;10.850;2023-11-19T09:33:00;11.10;99.90
8172;DHT22;4127;47.908;10.850;2023-11-19T09:35:28;11.10;99.90
8172;DHT22;4127;47.908;10.850;2023-11-19T09:37:55;11.10;99.90
8172;DHT22;4127;47.908;10.850;2023-11-19T09:40:22;11.10;99.90
8172;DHT22;4127;47.908;10.850;2023-11-19T09:42:48;11.10;99.90
8172;DHT22;4127;47.908;10.850;2023-11-19T09:45:16;11.10;99.90
8172;DHT22;4127;47.908;10.850;2023-11-19T09:47:46;11.10;99.90
8172;DHT22;4127;47.908;10.850;2023-11-19T09:50:17;11.10;99.90
8172;DHT22;4127;47.908;10.850;2023-11-19T09:52:48;11.10;99.90
8172;DHT22;4127;47.908;10.850;2023-11-19T09:55:15;11.10;99.90
8172;DHT22;4127;47.908;10.850;2023-11-19T09:57:41;11.20;99.90
8172;DHT22;4127;47.908;10.850;2023-11-19T10:00:13;11.20;99.90
8172;DHT22;4127;47.908;10.850;2023-11-19T10:02:43;11.30;99.90
8172;DHT22;4127;47.908;10.850;2023-11-19T10:05:14;11.30;99.90
8172;DHT22;4127;47.908;10.850;2023-11-19T10:07:41;11.40;99.90
8172;DHT22;4127;47.908;10.850;2023-11-19T10:10:09;11.40;99.90
8172;DHT22;4127;47.908;10.850;2023-11-19T10:12:40;11.40;99.90
8172;DHT22;4127;47.908;10.850;2023-11-19T10:15:24;11.50;99.90
8172;DHT22;4127;47.908;10.850;2023-11-19T10:17:57;11.50;99.90
8172;DHT22;4127;47.908;10.850;2023-11-19T10:20:24;11.40;99.90
8172;DHT22;4127;47.908;10.850;2023-11-19T10:22:55;11.40;99.90
8172;DHT22;4127;47.908;10.850;2023-11-19T10:25:24;11.40;99.90
8172;DHT22;4127;47.908;10.850;2023-11-19T10:27:52;11.40;99.90
8172;DHT22;4127;47.908;10.850;2023-11-19T10:30:26;11.40;99.90
8172;DHT22;4127;47.908;10.850;2023-11-19T10:33:14;11.40;99.90
8172;DHT22;4127;47.908;10.850;2023-11-19T10:35:57;11.40;99.90
8172;DHT22;4127;47.908;10.850;2023-11-19T10:38:27;11.40;99.90
8172;DHT22;4127;47.908;10.850;2023-11-19T10:40:54;11.40;99.90
8172;DHT22;4127;47.908;10.850;2023-11-19T10:43:22;11.40;99.90
8172;DHT22;4127;47.908;10.850;2023-11-19T10:45:50;11.40;99.90
8172;DHT22;4127;47.908;10.850;2023-11-19T10:48:17;11.50;99.90
8172;DHT22;4127;47.908;10.850;2023-11-19T10:50:46;11.60;99.90
8172;DHT22;4127;47.908;10.850;2023-11-19T10:53:13;11.60;99.90
8172;DHT22;4127;47.908;10.850;2023-11-19T10:55:40;11.60;99.90
8172;DHT22;4127;47.908;10.850;2023-11-19T10:58:09;11.70;99.90
8172;DHT22;4127;47.908;10.850;2023-11-19T11:03:20;11.70;99.90
8172;DHT22;4127;47.908;10.850;2023-11-19T11:05:50;11.80;99.90
8172;DHT22;4127;47.908;10.850;2023-11-19T11:08:18;11.80;99.90
8172;DHT22;4127;47.908;10.850;2023-11-19T11:10:52;11.80;99.90
8172;DHT22;4127;47.908;10.850;2023-11-19T11:13:23;11.80;99.90
8172;DHT22;4127;47.908;10.850;2023-11-19T11:15:56;11.80;99.90
8172;DHT22;4127;47.908;10.850;2023-11-19T11:18:25;11.80;99.90
8172;DHT22;4127;47.908;10.850;2023-11-19T11:21:05;11.80;99.90
8172;DHT22;4127;47.908;10.850;2023-11-19T11:23:56;11.90;99.90
8172;DHT22;4127;47.908;10.850;2023-11-19T11:32:08;12.00;99.90
8172;DHT22;4127;47.908;10.850;2023-11-19T11:37:53;11.90;99.90
8172;DHT22;4127;47.908;10.850;2023-11-19T11:40:21;11.80;99.90
8172;DHT22;4127;47.908;10.850;2023-11-19T11:42:50;11.90;99.90
8172;DHT22;4127;47.908;10.850;2023-11-19T11:45:35;11.90;99.90
8172;DHT22;4127;47.908;10.850;2023-11-19T11:48:15;12.00;99.90
8172;DHT22;4127;47.908;10.850;2023-11-19T11:50:56;11.90;99.90
8172;DHT22;4127;47.908;10.850;2023-11-19T11:53:24;11.90;99.90
8172;DHT22;4127;47.908;10.850;2023-11-19T11:55:54;12.00;99.90
8172;DHT22;4127;47.908;10.850;2023-11-19T11:58:29;12.00;99.90
8172;DHT22;4127;47.908;10.850;2023-11-19T12:01:04;12.00;99.90
8172;DHT22;4127;47.908;10.850;2023-11-19T12:03:37;12.00;99.90
8172;DHT22;4127;47.908;10.850;2023-11-19T12:06:04;12.10;99.90
8172;DHT22;4127;47.908;10.850;2023-11-19T12:08:34;12.10;99.90
8172;DHT22;4127;47.908;10.850;2023-11-19T12:11:19;12.20;99.90
8172;DHT22;4127;47.908;10.850;2023-11-19T12:13:56;12.30;99.90
8172;DHT22;4127;47.908;10.850;2023-11-19T12:16:25;12.20;99.90
8172;DHT22;4127;47.908;10.850;2023-11-19T12:18:55;12.10;99.90
8172;DHT22;4127;47.908;10.850;2023-11-19T12:21:30;12.00;99.90
8172;DHT22;4127;47.908;10.850;2023-11-19T12:23:58;12.00;99.90
8172;DHT22;4127;47.908;10.850;2023-11-19T12:26:34;11.90;99.90
8172;DHT22;4127;47.908;10.850;2023-11-19T12:29:02;11.90;99.90
8172;DHT22;4127;47.908;10.850;2023-11-19T12:31:35;11.80;99.90
8172;DHT22;4127;47.908;10.850;2023-11-19T12:34:06;11.80;99.90
8172;DHT22;4127;47.908;10.850;2023-11-19T12:36:34;11.90;99.90
8172;DHT22;4127;47.908;10.850;2023-11-19T12:39:01;12.00;99.90
8172;DHT22;4127;47.908;10.850;2023-11-19T12:41:28;12.00;99.90
8172;DHT22;4127;47.908;10.850;2023-11-19T12:44:09;12.00;99.90
8172;DHT22;4127;47.908;10.850;2023-11-19T12:46:37;12.10;99.90
8172;DHT22;4127;47.908;10.850;2023-11-19T12:49:04;12.10;99.90
8172;DHT22;4127;47.908;10.850;2023-11-19T12:51:32;12.00;99.90
8172;DHT22;4127;47.908;10.850;2023-11-19T12:54:00;12.00;99.90
8172;DHT22;4127;47.908;10.850;2023-11-19T12:56:27;11.90;99.90
8172;DHT22;4127;47.908;10.850;2023-11-19T12:58:54;11.90;99.90
8172;DHT22;4127;47.908;10.850;2023-11-19T13:01:21;12.00;99.90
8172;DHT22;4127;47.908;10.850;2023-11-19T13:03:48;12.00;99.90
8172;DHT22;4127;47.908;10.850;2023-11-19T13:06:16;12.10;99.90
8172;DHT22;4127;47.908;10.850;2023-11-19T13:08:45;12.10;99.90
8172;DHT22;4127;47.908;10.850;2023-11-19T13:11:12;12.10;99.90
8172;DHT22;4127;47.908;10.850;2023-11-19T13:13:55;12.10;99.90
8172;DHT22;4127;47.908;10.850;2023-11-19T13:16:23;12.10;99.90
8172;DHT22;4127;47.908;10.850;2023-11-19T13:18:50;12.10;99.90
8172;DHT22;4127;47.908;10.850;2023-11-19T13:21:18;12.10;99.90
8172;DHT22;4127;47.908;10.850;2023-11-19T13:23:45;12.10;99.90
8172;DHT22;4127;47.908;10.850;2023-11-19T13:26:12;12.10;99.90
8172;DHT22;4127;47.908;10.850;2023-11-19T13:28:40;12.00;99.90
8172;DHT22;4127;47.908;10.850;2023-11-19T13:31:07;12.00;99.90
8172;DHT22;4127;47.908;10.850;2023-11-19T13:33:34;12.00;99.90
8172;DHT22;4127;47.908;10.850;2023-11-19T13:36:02;12.00;99.90
8172;DHT22;4127;47.908;10.850;2023-11-19T13:38:35;12.00;99.90
8172;DHT22;4127;47.908;10.850;2023-11-19T13:41:03;12.00;99.90
8172;DHT22;4127;47.908;10.850;2023-11-19T13:43:31;12.00;99.90
8172;DHT22;4127;47.908;10.850;2023-11-19T13:45:58;12.00;99.90
8172;DHT22;4127;47.908;10.850;2023-11-19T13:48:25;11.90;99.90
8172;DHT22;4127;47.908;10.850;2023-11-19T13:50:54;11.90;99.90
8172;DHT22;4127;47.908;10.850;2023-11-19T13:53:22;11.90;99.90
8172;DHT22;4127;47.908;10.850;2023-11-19T13:55:50;11.90;99.90
8172;DHT22;4127;47.908;10.850;2023-11-19T13:58:17;11.90;99.90
8172;DHT22;4127;47.908;10.850;2023-11-19T14:00:45;11.90;99.90
8172;DHT22;4127;47.908;10.850;2023-11-19T14:03:12;11.80;99.90
8172;DHT22;4127;47.908;10.850;2023-11-19T14:05:39;11.80;99.90
8172;DHT22;4127;47.908;10.850;2023-11-19T14:08:08;11.80;99.90
8172;DHT22;4127;47.908;10.850;2023-11-19T14:10:51;11.80;99.90
8172;DHT22;4127;47.908;10.850;2023-11-19T14:13:18;11.80;99.90
8172;DHT22;4127;47.908;10.850;2023-11-19T14:15:45;11.80;99.90
8172;DHT22;4127;47.908;10.850;2023-11-19T14:18:15;11.80;99.90
8172;DHT22;4127;47.908;10.850;2023-11-19T14:20:42;11.80;99.90
8172;DHT22;4127;47.908;10.850;2023-11-19T14:23:10;11.80;99.90
8172;DHT22;4127;47.908;10.850;2023-11-19T14:25:37;11.80;99.90
8172;DHT22;4127;47.908;10.850;2023-11-19T14:28:04;11.70;99.90
8172;DHT22;4127;47.908;10.850;2023-11-19T14:30:32;11.70;99.90
8172;DHT22;4127;47.908;10.850;2023-11-19T14:33:00;11.60;99.90
8172;DHT22;4127;47.908;10.850;2023-11-19T14:35:27;11.60;99.90
8172;DHT22;4127;47.908;10.850;2023-11-19T14:37:56;11.60;99.90
8172;DHT22;4127;47.908;10.850;2023-11-19T14:40:23;11.60;99.90
8172;DHT22;4127;47.908;10.850;2023-11-19T14:43:08;11.50;99.90
8172;DHT22;4127;47.908;10.850;2023-11-19T14:45:38;11.50;99.90
8172;DHT22;4127;47.908;10.850;2023-11-19T14:48:15;11.50;99.90
8172;DHT22;4127;47.908;10.850;2023-11-19T14:50:42;11.50;99.90
8172;DHT22;4127;47.908;10.850;2023-11-19T14:53:09;11.50;99.90
8172;DHT22;4127;47.908;10.850;2023-11-19T14:55:36;11.50;99.90
8172;DHT22;4127;47.908;10.850;2023-11-19T14:58:03;11.40;99.90
8172;DHT22;4127;47.908;10.850;2023-11-19T15:00:36;11.50;99.90
8172;DHT22;4127;47.908;10.850;2023-11-19T15:03:03;11.40;99.90
8172;DHT22;4127;47.908;10.850;2023-11-19T15:05:31;11.40;99.90
8172;DHT22;4127;47.908;10.850;2023-11-19T15:07:58;11.40;99.90
8172;DHT22;4127;47.908;10.850;2023-11-19T15:10:26;11.40;99.90
8172;DHT22;4127;47.908;10.850;2023-11-19T15:12:53;11.40;99.90
8172;DHT22;4127;47.908;10.850;2023-11-19T15:15:21;11.40;99.90
8172;DHT22;4127;47.908;10.850;2023-11-19T15:17:51;11.40;99.90
8172;DHT22;4127;47.908;10.850;2023-11-19T15:20:18;11.40;99.90
8172;DHT22;4127;47.908;10.850;2023-11-19T15:22:46;11.40;99.90
8172;DHT22;4127;47.908;10.850;2023-11-19T15:25:13;11.50;99.90
8172;DHT22;4127;47.908;10.850;2023-11-19T15:27:40;11.50;99.90
8172;DHT22;4127;47.908;10.850;2023-11-19T15:30:07;11.50;99.90
8172;DHT22;4127;47.908;10.850;2023-11-19T15:32:37;11.40;99.90
8172;DHT22;4127;47.908;10.850;2023-11-19T15:35:04;11.40;99.90
8172;DHT22;4127;47.908;10.850;2023-11-19T15:37:34;11.40;99.90
8172;DHT22;4127;47.908;10.850;2023-11-19T15:40:02;11.40;99.90
8172;DHT22;4127;47.908;10.850;2023-11-19T15:42:32;11.40;99.90
8172;DHT22;4127;47.908;10.850;2023-11-19T15:44:59;11.50;99.90
8172;DHT22;4127;47.908;10.850;2023-11-19T15:47:27;11.50;99.90
8172;DHT22;4127;47.908;10.850;2023-11-19T15:49:54;11.50;99.90
8172;DHT22;4127;47.908;10.850;2023-11-19T15:52:22;11.50;99.90
8172;DHT22;4127;47.908;10.850;2023-11-19T15:54:49;11.50;99.90
8172;DHT22;4127;47.908;10.850;2023-11-19T15:57:16;11.40;99.90
8172;DHT22;4127;47.908;10.850;2023-11-19T15:59:43;11.40;99.90
8172;DHT22;4127;47.908;10.850;2023-11-19T16:02:10;11.40;99.90
8172;DHT22;4127;47.908;10.850;2023-11-19T16:04:38;11.30;99.90
8172;DHT22;4127;47.908;10.850;2023-11-19T16:07:06;11.30;99.90
8172;DHT22;4127;47.908;10.850;2023-11-19T16:09:32;11.30;99.90
8172;DHT22;4127;47.908;10.850;2023-11-19T16:11:59;11.30;99.90
8172;DHT22;4127;47.908;10.850;2023-11-19T16:14:26;11.30;99.90